Time;durP1;ratioP1;P1;durP2;ratioP2;P2;SDS_P1;SDS_P2;PMS_P1;PMS_P2;Temp;Humidity;BMP_temperature;BMP_pressure;BME280_temperature;BME280_humidity;BME280_pressure;Samples;Min_cycle;Max_cycle;Signal;HPM_P1;HPM_P2
2022/05/03 00:00:09;;;;;;;;;;;13.70;97.30;;;;;;4962423;28;19930;-83
2022/05/03 00:02:39;;;;;;;;;;;13.70;97.40;;;;;;4607763;28;10001657;-83
2022/05/03 00:05:11;;;;;;;;;;;13.60;97.50;;;;;;4948293;29;19935;-84
2022/05/03 00:07:57;;;;;;;;;;;13.60;97.60;;;;;;4947399;28;19926;-81
2022/05/03 00:10:30;;;;;;;;;;;13.50;97.50;;;;;;4959403;29;19927;-85
2022/05/03 00:13:03;;;;;;;;;;;12.40;97.40;;;;;;4965110;28;19926;-83
2022/05/03 00:15:31;;;;;;;;;;;13.40;97.50;;;;;;4949215;29;19930;-84
2022/05/03 00:18:01;;;;;;;;;;;13.40;97.90;;;;;;4938322;28;19934;-84
2022/05/03 00:20:32;;;;;;;;;;;13.30;97.70;;;;;;4985769;28;19930;-83
2022/05/03 00:23:01;;;;;;;;;;;13.40;97.90;;;;;;4952961;28;19926;-84
2022/05/03 00:25:30;;;;;;;;;;;13.10;98.00;;;;;;4944574;29;19941;-83
2022/05/03 00:27:58;;;;;;;;;;;13.10;98.10;;;;;;4966837;29;19926;-82
2022/05/03 00:30:28;;;;;;;;;;;13.00;98.30;;;;;;4967104;28;19930;-81
2022/05/03 00:32:58;;;;;;;;;;;12.80;98.20;;;;;;4967077;29;19927;-82
2022/05/03 00:35:26;;;;;;;;;;;13.00;98.50;;;;;;4956437;29;19926;-81
2022/05/03 00:37:55;;;;;;;;;;;12.60;98.40;;;;;;4955586;29;19930;-82
2022/05/03 00:40:24;;;;;;;;;;;12.50;98.50;;;;;;4952412;29;19933;-81
2022/05/03 00:43:11;;;;;;;;;;;12.50;98.60;;;;;;4952784;29;19933;-81
2022/05/03 00:45:56;;;;;;;;;;;12.40;98.70;;;;;;4951785;29;19927;-82
2022/05/03 00:48:26;;;;;;;;;;;12.20;98.70;;;;;;4933057;29;19933;-82
2022/05/03 00:51:08;;;;;;;;;;;12.20;98.90;;;;;;4956887;29;19930;-82
2022/05/03 00:53:43;;;;;;;;;;;12.20;98.80;;;;;;4953294;29;19926;-82
2022/05/03 00:56:18;;;;;;;;;;;12.10;98.90;;;;;;4956972;29;19931;-82
2022/05/03 00:59:08;;;;;;;;;;;12.00;98.90;;;;;;4961142;28;19930;-81
2022/05/03 01:01:36;;;;;;;;;;;12.00;98.90;;;;;;4965035;28;19930;-83
2022/05/03 01:04:12;;;;;;;;;;;12.10;99.70;;;;;;4955851;28;19930;-83
2022/05/03 01:06:40;;;;;;;;;;;11.80;99.10;;;;;;4969549;28;19926;-81
2022/05/03 01:09:12;;;;;;;;;;;11.80;99.30;;;;;;4969610;29;19931;-82
2022/05/03 01:11:53;;;;;;;;;;;11.70;99.30;;;;;;4951522;29;19927;-81
2022/05/03 01:14:27;;;;;;;;;;;11.60;99.50;;;;;;4950929;29;19930;-83
2022/05/03 01:16:58;;;;;;;;;;;11.80;99.60;;;;;;4962719;29;19927;-82
2022/05/03 01:19:37;;;;;;;;;;;11.60;99.80;;;;;;4967109;29;19927;-83
2022/05/03 01:22:15;;;;;;;;;;;11.60;99.70;;;;;;4975101;28;19932;-82
2022/05/03 01:24:58;;;;;;;;;;;11.60;99.90;;;;;;4951551;29;19931;-82
2022/05/03 01:27:39;;;;;;;;;;;11.50;99.90;;;;;;4948867;29;19934;-83
2022/05/03 01:30:09;;;;;;;;;;;11.50;99.90;;;;;;4935351;29;19930;-81
2022/05/03 01:32:38;;;;;;;;;;;11.50;99.90;;;;;;4935390;29;19926;-87
2022/05/03 01:35:07;;;;;;;;;;;11.50;99.90;;;;;;4956569;28;19926;-83
2022/05/03 01:37:54;;;;;;;;;;;11.50;99.90;;;;;;4951885;29;19931;-83
2022/05/03 01:40:32;;;;;;;;;;;11.50;99.90;;;;;;4943952;28;19940;-85
2022/05/03 01:43:07;;;;;;;;;;;11.50;99.90;;;;;;4969264;28;19927;-84
2022/05/03 01:45:42;;;;;;;;;;;11.50;99.90;;;;;;4942904;28;19926;-82
2022/05/03 01:50:18;;;;;;;;;;;11.40;99.90;;;;;;4972022;28;19926;-82
2022/05/03 01:51:24;;;;;;;;;;;11.40;99.90;;;;;;4970723;28;19933;-82
2022/05/03 01:53:59;;;;;;;;;;;11.50;99.90;;;;;;4976265;28;19930;-82
2022/05/03 01:56:36;;;;;;;;;;;11.50;99.90;;;;;;4968637;28;20521;-82
2022/05/03 01:59:20;;;;;;;;;;;11.50;99.90;;;;;;4955549;28;20848;-81
2022/05/03 02:01:48;;;;;;;;;;;10.60;99.90;;;;;;4972042;28;19926;-82
2022/05/03 02:04:19;;;;;;;;;;;11.50;99.90;;;;;;4939872;28;19926;-81
2022/05/03 02:06:57;;;;;;;;;;;11.60;99.90;;;;;;4973290;28;19955;-81
2022/05/03 02:09:30;;;;;;;;;;;11.50;99.90;;;;;;4976467;28;19930;-81
2022/05/03 02:12:10;;;;;;;;;;;12.90;99.90;;;;;;4947762;29;20459;-81
2022/05/03 02:14:46;;;;;;;;;;;10.50;99.90;;;;;;4963687;28;19926;-81
2022/05/03 02:17:37;;;;;;;;;;;11.60;99.90;;;;;;4959672;28;20316;-81
2022/05/03 02:20:16;;;;;;;;;;;11.60;99.90;;;;;;4974825;28;19930;-82
2022/05/03 02:22:59;;;;;;;;;;;11.60;99.90;;;;;;4972878;28;19930;-85
2022/05/03 02:25:34;;;;;;;;;;;11.60;99.90;;;;;;4976919;28;19941;-83
2022/05/03 02:28:04;;;;;;;;;;;11.60;99.90;;;;;;4971000;28;20458;-83
2022/05/03 02:30:35;;;;;;;;;;;11.60;99.90;;;;;;4952544;28;19938;-84
2022/05/03 02:33:04;;;;;;;;;;;10.90;99.90;;;;;;4951896;29;19933;-83
2022/05/03 02:35:34;;;;;;;;;;;11.70;99.90;;;;;;4968227;29;19928;-82
2022/05/03 02:38:04;;;;;;;;;;;11.70;99.90;;;;;;4950301;29;19930;-82
2022/05/03 02:40:33;;;;;;;;;;;12.00;99.90;;;;;;4951412;29;20486;-83
2022/05/03 02:43:02;;;;;;;;;;;11.80;99.90;;;;;;4968088;28;19930;-83
2022/05/03 02:45:34;;;;;;;;;;;11.80;99.90;;;;;;4966500;29;19931;-82
2022/05/03 02:48:13;;;;;;;;;;;11.80;99.90;;;;;;4950251;29;19935;-83
2022/05/03 02:50:48;;;;;;;;;;;11.80;99.90;;;;;;4949501;29;19933;-83
2022/05/03 02:53:26;;;;;;;;;;;11.80;99.50;;;;;;4940770;28;19933;-82
2022/05/03 02:55:59;;;;;;;;;;;11.80;99.40;;;;;;4980695;28;19942;-83
2022/05/03 02:58:30;;;;;;;;;;;11.80;99.00;;;;;;4967490;28;19937;-83
2022/05/03 03:03:52;;;;;;;;;;;11.80;99.10;;;;;;4942863;29;19927;-83
2022/05/03 03:06:21;;;;;;;;;;;12.20;98.90;;;;;;4949706;29;19937;-83
2022/05/03 03:08:53;;;;;;;;;;;10.80;98.70;;;;;;4967483;29;19930;-84
2022/05/03 03:11:21;;;;;;;;;;;12.30;98.90;;;;;;4931479;29;19938;-82
2022/05/03 03:14:00;;;;;;;;;;;11.80;99.30;;;;;;4938514;29;19927;-82
2022/05/03 03:16:33;;;;;;;;;;;11.80;98.80;;;;;;4967913;28;19936;-82
2022/05/03 03:19:11;;;;;;;;;;;11.80;98.70;;;;;;4950282;29;19927;-83
2022/05/03 03:21:39;;;;;;;;;;;11.80;98.70;;;;;;4965990;28;19926;-84
2022/05/03 03:24:08;;;;;;;;;;;12.10;99.20;;;;;;4969784;28;19926;-83
2022/05/03 03:26:37;;;;;;;;;;;11.80;98.90;;;;;;4970454;28;19931;-83
2022/05/03 03:29:07;;;;;;;;;;;12.10;99.00;;;;;;4951279;29;19926;-83
2022/05/03 03:31:35;;;;;;;;;;;13.20;99.10;;;;;;4954259;28;19926;-83
2022/05/03 03:34:04;;;;;;;;;;;11.80;98.90;;;;;;4954827;28;19926;-84
2022/05/03 03:36:33;;;;;;;;;;;11.80;98.80;;;;;;4965309;28;19926;-83
2022/05/03 03:39:01;;;;;;;;;;;11.60;98.80;;;;;;4970981;28;20001;-82
2022/05/03 03:41:29;;;;;;;;;;;11.90;98.90;;;;;;4967721;28;19926;-83
2022/05/03 03:43:57;;;;;;;;;;;11.90;99.00;;;;;;4990605;28;19941;-83
2022/05/03 03:46:25;;;;;;;;;;;10.70;98.50;;;;;;4954195;29;19926;-81
2022/05/03 03:48:54;;;;;;;;;;;11.60;99.10;;;;;;4957799;29;19927;-82
2022/05/03 03:51:22;;;;;;;;;;;11.80;98.90;;;;;;4975222;28;19927;-83
2022/05/03 03:53:52;;;;;;;;;;;11.80;99.20;;;;;;4928604;29;20387;-81
2022/05/03 03:56:20;;;;;;;;;;;11.80;99.10;;;;;;4963768;28;19933;-82
2022/05/03 03:58:48;;;;;;;;;;;11.80;99.00;;;;;;4988611;28;19926;-82
2022/05/03 04:01:18;;;;;;;;;;;11.80;99.10;;;;;;4939383;29;19931;-83
2022/05/03 04:03:47;;;;;;;;;;;11.90;99.30;;;;;;4953937;28;19930;-82
2022/05/03 04:06:15;;;;;;;;;;;11.70;99.40;;;;;;4935174;29;19949;-82
2022/05/03 04:08:43;;;;;;;;;;;12.60;99.50;;;;;;4968820;29;20418;-81
2022/05/03 04:11:14;;;;;;;;;;;11.90;99.80;;;;;;4920405;28;19930;-82
2022/05/03 04:13:43;;;;;;;;;;;11.70;99.50;;;;;;4951713;29;19927;-82
2022/05/03 04:16:11;;;;;;;;;;;11.70;99.70;;;;;;4957119;29;19930;-82
2022/05/03 04:18:44;;;;;;;;;;;11.70;99.70;;;;;;4980182;28;19937;-81
2022/05/03 04:21:15;;;;;;;;;;;11.70;99.90;;;;;;4952506;29;19931;-85
2022/05/03 04:23:48;;;;;;;;;;;11.70;99.70;;;;;;4963183;28;19926;-83
2022/05/03 04:26:17;;;;;;;;;;;11.60;99.70;;;;;;4956408;28;19941;-83
2022/05/03 04:28:45;;;;;;;;;;;11.70;99.70;;;;;;4973222;28;19926;-82
2022/05/03 04:31:13;;;;;;;;;;;11.60;99.90;;;;;;4969889;28;19932;-85
2022/05/03 04:33:41;;;;;;;;;;;11.60;99.90;;;;;;4968924;28;19937;-82
2022/05/03 04:36:10;;;;;;;;;;;11.70;99.90;;;;;;4985687;28;19933;-82
2022/05/03 04:38:42;;;;;;;;;;;11.00;99.90;;;;;;4948879;29;19930;-85
2022/05/03 04:41:10;;;;;;;;;;;11.60;99.90;;;;;;4980055;28;19933;-86
2022/05/03 04:43:41;;;;;;;;;;;11.50;99.90;;;;;;4696135;28;10000295;-83
2022/05/03 04:46:09;;;;;;;;;;;11.60;99.90;;;;;;4969447;28;19934;-84
2022/05/03 04:48:37;;;;;;;;;;;11.80;99.90;;;;;;4935408;28;20415;-83
2022/05/03 04:51:05;;;;;;;;;;;11.60;99.90;;;;;;4957077;28;19927;-82
2022/05/03 04:53:33;;;;;;;;;;;11.60;99.90;;;;;;4983920;28;19936;-82
2022/05/03 04:56:02;;;;;;;;;;;11.60;99.90;;;;;;4984304;28;19936;-86
2022/05/03 04:58:30;;;;;;;;;;;11.60;99.90;;;;;;4966883;28;19926;-82
2022/05/03 05:00:58;;;;;;;;;;;11.60;99.90;;;;;;4942823;28;19927;-83
2022/05/03 05:03:26;;;;;;;;;;;11.50;99.90;;;;;;4947419;29;19930;-82
2022/05/03 05:05:58;;;;;;;;;;;11.50;99.90;;;;;;4913495;29;19927;-84
2022/05/03 05:08:29;;;;;;;;;;;11.50;99.90;;;;;;4946814;29;19927;-81
2022/05/03 05:10:57;;;;;;;;;;;11.50;99.90;;;;;;4930919;28;20347;-81
2022/05/03 05:13:25;;;;;;;;;;;11.60;99.90;;;;;;4948397;29;19926;-82
2022/05/03 05:15:53;;;;;;;;;;;11.50;99.90;;;;;;4972355;28;20380;-82
2022/05/03 05:18:24;;;;;;;;;;;11.60;99.90;;;;;;4946907;28;20464;-84
2022/05/03 05:20:56;;;;;;;;;;;13.70;99.90;;;;;;4953079;29;19933;-83
2022/05/03 05:23:27;;;;;;;;;;;12.10;99.90;;;;;;4943721;29;19930;-82
2022/05/03 05:25:57;;;;;;;;;;;11.70;99.90;;;;;;4974061;28;19926;-82
2022/05/03 05:28:26;;;;;;;;;;;11.60;99.90;;;;;;4944519;28;19927;-83
2022/05/03 05:30:55;;;;;;;;;;;11.40;99.90;;;;;;4962652;28;19926;-82
2022/05/03 05:33:26;;;;;;;;;;;11.70;99.90;;;;;;4966400;28;19927;-81
2022/05/03 05:35:58;;;;;;;;;;;11.80;99.90;;;;;;4961211;28;19945;-83
2022/05/03 05:38:26;;;;;;;;;;;12.80;99.90;;;;;;4961657;29;19931;-82
2022/05/03 05:40:55;;;;;;;;;;;11.80;99.90;;;;;;4967913;28;19936;-84
2022/05/03 05:43:27;;;;;;;;;;;11.80;99.90;;;;;;4972118;28;19937;-81
2022/05/03 05:45:58;;;;;;;;;;;12.80;99.90;;;;;;4970823;28;19932;-82
2022/05/03 05:48:26;;;;;;;;;;;10.90;99.90;;;;;;4969654;28;19937;-82
2022/05/03 05:50:54;;;;;;;;;;;11.80;99.90;;;;;;4951581;28;20274;-84
2022/05/03 05:53:31;;;;;;;;;;;11.80;99.90;;;;;;4945207;29;19930;-81
2022/05/03 05:56:22;;;;;;;;;;;11.90;99.90;;;;;;4960816;28;19931;-83
2022/05/03 05:59:30;;;;;;;;;;;12.00;99.90;;;;;;4955478;29;19927;-86
2022/05/03 06:01:59;;;;;;;;;;;12.00;99.90;;;;;;4951400;29;19945;-81
2022/05/03 06:04:27;;;;;;;;;;;11.40;99.90;;;;;;4967850;29;19938;-81
2022/05/03 06:10:15;;;;;;;;;;;12.00;99.90;;;;;;4889809;29;19930;-88
2022/05/03 06:13:13;;;;;;;;;;;12.00;99.90;;;;;;4883851;29;19934;-88
2022/05/03 06:15:50;;;;;;;;;;;12.00;99.90;;;;;;4878617;29;19939;-86
2022/05/03 06:18:33;;;;;;;;;;;12.10;99.90;;;;;;4893041;29;19927;-87
2022/05/03 06:21:04;;;;;;;;;;;12.10;99.90;;;;;;4884364;29;19927;-87
2022/05/03 06:23:33;;;;;;;;;;;12.10;99.90;;;;;;4894969;29;19928;-89
2022/05/03 06:26:04;;;;;;;;;;;12.10;99.90;;;;;;4900504;29;19930;-90
2022/05/03 06:28:42;;;;;;;;;;;12.10;99.90;;;;;;4887948;29;19947;-89
2022/05/03 06:31:13;;;;;;;;;;;12.20;99.90;;;;;;4888116;29;19934;-86
2022/05/03 06:33:41;;;;;;;;;;;12.10;99.90;;;;;;4881793;29;19927;-89
2022/05/03 06:36:13;;;;;;;;;;;12.20;99.90;;;;;;4891575;29;19931;-86
2022/05/03 06:38:49;;;;;;;;;;;12.30;99.90;;;;;;4896956;29;19935;-87
2022/05/03 06:41:21;;;;;;;;;;;12.20;99.90;;;;;;4903998;29;19927;-87
2022/05/03 06:43:49;;;;;;;;;;;12.10;99.90;;;;;;4899221;29;19954;-89
2022/05/03 06:46:17;;;;;;;;;;;12.20;99.90;;;;;;4917140;29;19930;-89
2022/05/03 06:48:47;;;;;;;;;;;12.30;99.90;;;;;;4923755;29;19927;-89
2022/05/03 06:51:15;;;;;;;;;;;12.40;99.90;;;;;;4900120;29;19930;-88
2022/05/03 06:53:42;;;;;;;;;;;12.30;99.90;;;;;;4935571;29;20190;-87
2022/05/03 06:56:10;;;;;;;;;;;12.50;99.90;;;;;;4920132;29;19926;-86
2022/05/03 06:58:50;;;;;;;;;;;12.40;99.90;;;;;;4935090;29;19927;-88
2022/05/03 07:01:18;;;;;;;;;;;12.60;99.90;;;;;;4904738;29;19927;-89
2022/05/03 07:03:47;;;;;;;;;;;12.50;99.90;;;;;;4918661;29;20330;-89
2022/05/03 07:06:21;;;;;;;;;;;12.50;99.90;;;;;;4903519;29;19938;-90
2022/05/03 07:08:48;;;;;;;;;;;12.50;99.90;;;;;;4903725;29;19934;-89
2022/05/03 07:11:16;;;;;;;;;;;12.50;99.90;;;;;;4904385;29;19942;-88
2022/05/03 07:13:43;;;;;;;;;;;12.50;99.90;;;;;;4918765;29;19933;-88
2022/05/03 07:16:11;;;;;;;;;;;12.50;99.90;;;;;;4910385;29;20361;-88
2022/05/03 07:24:22;;;;;;;;;;;12.50;99.90;;;;;;4909050;29;20046;-88
2022/05/03 07:26:53;;;;;;;;;;;12.90;99.90;;;;;;4901218;29;21557;-89
2022/05/03 07:29:22;;;;;;;;;;;12.60;99.90;;;;;;4888244;29;19950;-88
2022/05/03 07:31:50;;;;;;;;;;;12.70;99.90;;;;;;4893866;29;19928;-87
2022/05/03 07:34:17;;;;;;;;;;;12.70;99.90;;;;;;4896714;29;19934;-88
2022/05/03 07:36:45;;;;;;;;;;;12.70;99.90;;;;;;4896324;29;19931;-88
2022/05/03 07:39:13;;;;;;;;;;;12.60;99.90;;;;;;4889696;29;19923;-89
2022/05/03 07:44:54;;;;;;;;;;;12.60;99.90;;;;;;4884465;29;19935;-88
2022/05/03 07:47:22;;;;;;;;;;;12.60;99.90;;;;;;4893549;29;19927;-88
2022/05/03 07:49:51;;;;;;;;;;;12.60;99.90;;;;;;4894077;29;19954;-87
2022/05/03 07:52:27;;;;;;;;;;;12.60;99.90;;;;;;4885977;29;19946;-88
2022/05/03 07:54:56;;;;;;;;;;;12.60;99.90;;;;;;4926327;29;21115;-88
2022/05/03 07:57:35;;;;;;;;;;;12.60;99.90;;;;;;4931307;29;19931;-89
2022/05/03 08:00:05;;;;;;;;;;;12.60;99.90;;;;;;4894476;29;19931;-89
2022/05/03 08:02:37;;;;;;;;;;;12.60;99.90;;;;;;4886277;29;20042;-87
2022/05/03 08:05:23;;;;;;;;;;;13.60;99.90;;;;;;4901558;29;19931;-86
2022/05/03 08:07:51;;;;;;;;;;;12.60;99.90;;;;;;4908176;29;19937;-88
2022/05/03 08:10:19;;;;;;;;;;;12.60;99.90;;;;;;4902493;29;20115;-87
2022/05/03 08:12:51;;;;;;;;;;;12.70;99.90;;;;;;4906748;29;19935;-87
2022/05/03 08:15:19;;;;;;;;;;;13.10;99.90;;;;;;4906445;29;20415;-89
2022/05/03 08:17:47;;;;;;;;;;;12.80;99.90;;;;;;4906943;29;19933;-89
2022/05/03 08:20:15;;;;;;;;;;;12.80;99.90;;;;;;4903585;29;19933;-90
2022/05/03 08:22:43;;;;;;;;;;;12.80;99.90;;;;;;4900534;29;19931;-89
2022/05/03 08:25:11;;;;;;;;;;;12.90;99.90;;;;;;4899458;29;19935;-90
2022/05/03 08:27:40;;;;;;;;;;;13.00;99.90;;;;;;4908930;29;19961;-91
2022/05/03 08:30:09;;;;;;;;;;;13.00;99.90;;;;;;4903585;29;19931;-90
2022/05/03 08:32:37;;;;;;;;;;;13.00;99.90;;;;;;4913857;29;20517;-89
2022/05/03 08:35:06;;;;;;;;;;;12.90;99.90;;;;;;4930786;29;19946;-88
2022/05/03 08:43:07;;;;;;;;;;;13.00;99.90;;;;;;4937262;29;20284;-88
2022/05/03 08:45:35;;;;;;;;;;;13.00;99.90;;;;;;4910508;29;19938;-89
2022/05/03 08:48:06;;;;;;;;;;;13.00;99.90;;;;;;4909858;29;19934;-88
2022/05/03 08:50:34;;;;;;;;;;;13.00;99.90;;;;;;4913431;29;19926;-88
2022/05/03 08:53:03;;;;;;;;;;;13.00;99.90;;;;;;4906772;29;20295;-89
2022/05/03 08:58:49;;;;;;;;;;;12.30;99.90;;;;;;4911759;29;19926;-85
2022/05/03 09:01:18;;;;;;;;;;;13.00;99.90;;;;;;4920029;29;19926;-87
2022/05/03 09:03:46;;;;;;;;;;;12.60;99.90;;;;;;4947823;28;19931;-86
2022/05/03 09:06:14;;;;;;;;;;;13.00;99.90;;;;;;4924050;29;19929;-87
2022/05/03 09:08:42;;;;;;;;;;;12.90;99.90;;;;;;4939842;29;19946;-85
2022/05/03 09:11:20;;;;;;;;;;;12.90;99.90;;;;;;4948707;28;19914;-89
2022/05/03 09:13:47;;;;;;;;;;;12.80;99.90;;;;;;4946997;28;19922;-87
2022/05/03 09:16:17;;;;;;;;;;;12.90;99.90;;;;;;4922157;28;19914;-87
2022/05/03 09:18:47;;;;;;;;;;;12.90;99.90;;;;;;4955058;23;19934;-81
2022/05/03 09:24:08;;;;;;;;;;;12.90;99.90;;;;;;4945581;29;19934;-82
2022/05/03 09:26:37;;;;;;;;;;;13.00;99.90;;;;;;4959877;28;19954;-81
2022/05/03 09:29:08;;;;;;;;;;;13.00;99.90;;;;;;4958970;29;20221;-81
2022/05/03 09:31:37;;;;;;;;;;;13.10;99.90;;;;;;4962468;29;20119;-81
2022/05/03 09:34:19;;;;;;;;;;;13.00;99.90;;;;;;4960495;29;19952;-81
2022/05/03 09:36:55;;;;;;;;;;;13.30;99.90;;;;;;4943018;29;19934;-81
2022/05/03 09:39:33;;;;;;;;;;;13.50;99.90;;;;;;4942174;28;19927;-81
2022/05/03 09:42:04;;;;;;;;;;;14.80;99.90;;;;;;4947334;28;19927;-81
2022/05/03 09:44:36;;;;;;;;;;;13.70;99.90;;;;;;4942341;29;19938;-81
2022/05/03 09:47:11;;;;;;;;;;;13.80;99.90;;;;;;4961128;28;20363;-80
2022/05/03 09:49:39;;;;;;;;;;;13.90;99.90;;;;;;4947104;28;19933;-80
2022/05/03 09:52:12;;;;;;;;;;;14.00;99.90;;;;;;4948398;28;19930;-80
2022/05/03 09:54:46;;;;;;;;;;;14.10;99.90;;;;;;4946960;28;20199;-80
2022/05/03 09:57:25;;;;;;;;;;;14.10;99.90;;;;;;4962376;28;19935;-80
2022/05/03 09:59:55;;;;;;;;;;;14.20;99.90;;;;;;4946103;29;19926;-80
2022/05/03 10:02:25;;;;;;;;;;;13.20;99.90;;;;;;4931461;29;19942;-80
2022/05/03 10:04:56;;;;;;;;;;;14.20;99.90;;;;;;4963141;28;19941;-81
2022/05/03 10:07:27;;;;;;;;;;;14.20;99.90;;;;;;4961893;28;19933;-80
2022/05/03 10:09:55;;;;;;;;;;;14.20;99.90;;;;;;4932429;29;19931;-80
2022/05/03 10:12:22;;;;;;;;;;;14.10;99.90;;;;;;4959573;28;19941;-81
2022/05/03 10:14:50;;;;;;;;;;;14.10;99.90;;;;;;4925633;29;19938;-80
2022/05/03 10:20:36;;;;;;;;;;;14.10;99.90;;;;;;4956854;29;19935;-80
2022/05/03 10:23:19;;;;;;;;;;;14.10;99.90;;;;;;4939051;29;20027;-81
2022/05/03 10:25:47;;;;;;;;;;;14.40;99.90;;;;;;4940377;29;19930;-80
2022/05/03 10:28:14;;;;;;;;;;;14.20;99.90;;;;;;4928310;29;20137;-80
2022/05/03 10:31:01;;;;;;;;;;;13.80;99.90;;;;;;4928913;29;20452;-81
2022/05/03 10:33:29;;;;;;;;;;;14.00;99.90;;;;;;4929400;29;19931;-80
2022/05/03 10:35:58;;;;;;;;;;;14.00;99.90;;;;;;4927387;29;19942;-81
2022/05/03 10:38:38;;;;;;;;;;;14.00;99.90;;;;;;4930821;29;19927;-80
2022/05/03 10:41:09;;;;;;;;;;;13.90;99.90;;;;;;4931136;29;19935;-80
2022/05/03 10:43:37;;;;;;;;;;;13.90;99.90;;;;;;4934774;29;19931;-81
2022/05/03 10:46:11;;;;;;;;;;;13.90;99.90;;;;;;4930058;29;19938;-80
2022/05/03 10:48:44;;;;;;;;;;;14.00;99.90;;;;;;4942782;29;19938;-81
2022/05/03 10:51:14;;;;;;;;;;;14.00;99.90;;;;;;4924970;29;19934;-81
2022/05/03 10:53:42;;;;;;;;;;;13.90;99.90;;;;;;4926080;29;19930;-81
2022/05/03 10:56:16;;;;;;;;;;;14.00;99.90;;;;;;4930939;29;19931;-81
2022/05/03 10:58:45;;;;;;;;;;;14.00;99.90;;;;;;4926390;29;19941;-81
2022/05/03 11:01:18;;;;;;;;;;;13.90;99.90;;;;;;4927953;29;19927;-81
2022/05/03 11:03:54;;;;;;;;;;;14.00;99.90;;;;;;4913824;29;19927;-82
2022/05/03 11:06:22;;;;;;;;;;;14.00;99.90;;;;;;4927745;29;19935;-81
2022/05/03 11:09:05;;;;;;;;;;;13.10;99.90;;;;;;4945482;29;19931;-80
2022/05/03 11:11:58;;;;;;;;;;;14.10;99.90;;;;;;4927174;29;19926;-81
2022/05/03 11:14:29;;;;;;;;;;;14.10;99.90;;;;;;4926218;29;19930;-81
2022/05/03 11:17:08;;;;;;;;;;;14.20;99.90;;;;;;4926470;29;19931;-81
2022/05/03 11:19:49;;;;;;;;;;;14.20;99.90;;;;;;4926797;29;19938;-81
2022/05/03 11:22:21;;;;;;;;;;;14.40;99.90;;;;;;4961723;28;19927;-81
2022/05/03 11:24:53;;;;;;;;;;;14.20;99.90;;;;;;4963578;29;19938;-82
2022/05/03 11:27:21;;;;;;;;;;;14.10;99.90;;;;;;4943225;29;19926;-81
2022/05/03 11:29:49;;;;;;;;;;;14.10;99.90;;;;;;4912407;29;19953;-80
2022/05/03 11:32:27;;;;;;;;;;;14.20;99.90;;;;;;4942390;29;19935;-80
2022/05/03 11:35:02;;;;;;;;;;;14.10;99.90;;;;;;4959120;28;20310;-81
2022/05/03 11:37:30;;;;;;;;;;;14.10;99.90;;;;;;4893297;29;19935;-80
2022/05/03 11:40:02;;;;;;;;;;;14.10;99.90;;;;;;4959043;29;19944;-81
2022/05/03 11:42:38;;;;;;;;;;;14.10;99.90;;;;;;4929450;29;19934;-80
2022/05/03 11:45:07;;;;;;;;;;;14.10;99.90;;;;;;4942463;29;19946;-80
2022/05/03 11:47:37;;;;;;;;;;;14.20;99.90;;;;;;4956105;28;19935;-79
2022/05/03 11:50:06;;;;;;;;;;;14.20;99.90;;;;;;4957872;28;19930;-81
2022/05/03 11:58:08;;;;;;;;;;;14.20;99.90;;;;;;4943271;29;19938;-79
2022/05/03 12:00:46;;;;;;;;;;;14.20;99.90;;;;;;4957900;28;19934;-80
2022/05/03 12:03:14;;;;;;;;;;;14.20;99.90;;;;;;4958062;29;19932;-80
2022/05/03 12:05:58;;;;;;;;;;;14.20;99.90;;;;;;4940233;29;19934;-81
2022/05/03 12:08:26;;;;;;;;;;;14.20;99.90;;;;;;4959729;29;20676;-80
2022/05/03 12:10:56;;;;;;;;;;;14.20;99.90;;;;;;4941154;29;19949;-80
2022/05/03 12:13:24;;;;;;;;;;;14.20;99.90;;;;;;4938127;29;19926;-80
2022/05/03 12:15:58;;;;;;;;;;;14.20;99.90;;;;;;4958976;28;19932;-80
2022/05/03 12:18:31;;;;;;;;;;;14.10;99.90;;;;;;4939351;29;19941;-79
2022/05/03 12:21:00;;;;;;;;;;;14.10;99.90;;;;;;4960263;29;20128;-80
2022/05/03 12:23:31;;;;;;;;;;;14.00;99.90;;;;;;4944300;29;19936;-80
2022/05/03 12:26:00;;;;;;;;;;;14.00;99.90;;;;;;4928564;29;19942;-80
2022/05/03 12:28:40;;;;;;;;;;;14.00;99.90;;;;;;4957919;28;19930;-80
2022/05/03 12:31:10;;;;;;;;;;;13.90;99.90;;;;;;4918849;29;19927;-81
2022/05/03 12:33:44;;;;;;;;;;;13.90;99.90;;;;;;4931240;29;19931;-80
2022/05/03 12:36:26;;;;;;;;;;;14.00;99.90;;;;;;4947831;29;19934;-83
2022/05/03 12:38:54;;;;;;;;;;;14.00;99.90;;;;;;4946310;29;19927;-80
2022/05/03 12:41:23;;;;;;;;;;;14.00;99.90;;;;;;4946279;29;19938;-80
2022/05/03 12:44:05;;;;;;;;;;;14.00;99.90;;;;;;4960531;28;19953;-80
2022/05/03 12:46:33;;;;;;;;;;;14.00;99.90;;;;;;4932192;29;19945;-79
2022/05/03 12:49:04;;;;;;;;;;;14.00;99.90;;;;;;4962243;29;19926;-80
2022/05/03 12:51:33;;;;;;;;;;;14.00;99.90;;;;;;4945719;29;19931;-81
2022/05/03 12:54:02;;;;;;;;;;;14.00;99.90;;;;;;4966607;29;19937;-80
2022/05/03 12:59:18;;;;;;;;;;;14.10;99.90;;;;;;4963231;28;19938;-81
2022/05/03 13:01:46;;;;;;;;;;;14.10;99.90;;;;;;4945976;29;19931;-80
2022/05/03 13:04:15;;;;;;;;;;;14.10;99.90;;;;;;4952507;29;19927;-82
2022/05/03 13:06:47;;;;;;;;;;;14.20;99.90;;;;;;4935248;29;19927;-80
2022/05/03 13:09:15;;;;;;;;;;;14.20;99.90;;;;;;4951617;29;19926;-79
2022/05/03 13:11:44;;;;;;;;;;;14.10;99.90;;;;;;4936137;29;19941;-79
2022/05/03 13:14:13;;;;;;;;;;;14.10;99.90;;;;;;4934577;29;19927;-80
2022/05/03 13:16:41;;;;;;;;;;;13.10;99.90;;;;;;4917174;29;19950;-80
2022/05/03 13:19:08;;;;;;;;;;;14.10;99.90;;;;;;4925366;29;20756;-80
2022/05/03 13:21:39;;;;;;;;;;;14.10;99.90;;;;;;4911975;29;19935;-80
2022/05/03 13:24:07;;;;;;;;;;;14.20;99.90;;;;;;4927537;29;20113;-80
2022/05/03 13:26:36;;;;;;;;;;;14.20;99.90;;;;;;4925636;29;20132;-79
2022/05/03 13:29:05;;;;;;;;;;;14.30;99.90;;;;;;4927695;29;19933;-80
2022/05/03 13:31:35;;;;;;;;;;;14.30;99.90;;;;;;4925035;29;19938;-83
2022/05/03 13:34:07;;;;;;;;;;;14.40;99.90;;;;;;4924872;29;19931;-81
2022/05/03 13:42:10;;;;;;;;;;;14.50;99.90;;;;;;4923936;29;19935;-81
2022/05/03 13:44:38;;;;;;;;;;;14.30;99.90;;;;;;4907662;29;19931;-81
2022/05/03 13:47:08;;;;;;;;;;;14.40;99.90;;;;;;4924227;29;19951;-81
2022/05/03 13:49:37;;;;;;;;;;;14.30;99.90;;;;;;4926032;29;19927;-82
2022/05/03 13:52:06;;;;;;;;;;;14.30;99.90;;;;;;4924747;29;19927;-81
2022/05/03 13:54:34;;;;;;;;;;;14.30;99.90;;;;;;4876756;29;19946;-82
2022/05/03 13:57:02;;;;;;;;;;;14.30;99.90;;;;;;4923155;29;19942;-82
2022/05/03 13:59:31;;;;;;;;;;;14.30;99.90;;;;;;4922749;29;19931;-81
2022/05/03 14:01:59;;;;;;;;;;;14.30;99.90;;;;;;4923970;29;19942;-82
2022/05/03 14:04:29;;;;;;;;;;;14.30;99.90;;;;;;4924801;29;20540;-82
2022/05/03 14:06:57;;;;;;;;;;;14.30;99.90;;;;;;4923780;29;20419;-81
2022/05/03 14:09:26;;;;;;;;;;;14.40;99.90;;;;;;4923187;29;19935;-83
2022/05/03 14:11:56;;;;;;;;;;;14.40;99.90;;;;;;4920649;29;19934;-82
2022/05/03 14:14:24;;;;;;;;;;;14.50;99.90;;;;;;4922869;29;19937;-83
2022/05/03 14:16:55;;;;;;;;;;;14.60;99.90;;;;;;4895926;29;19942;-85
2022/05/03 14:19:26;;;;;;;;;;;14.80;99.90;;;;;;4908254;29;19934;-84
2022/05/03 14:21:54;;;;;;;;;;;14.90;99.90;;;;;;4939568;29;19938;-84
2022/05/03 14:24:22;;;;;;;;;;;15.20;99.90;;;;;;4941017;29;19931;-83
2022/05/03 14:26:50;;;;;;;;;;;15.50;99.90;;;;;;4923988;29;19941;-83
2022/05/03 14:29:18;;;;;;;;;;;15.70;99.90;;;;;;4927617;29;19927;-84
2022/05/03 14:31:46;;;;;;;;;;;16.00;99.90;;;;;;4959039;29;19946;-83
2022/05/03 14:34:14;;;;;;;;;;;16.30;99.90;;;;;;4960389;29;20102;-84
2022/05/03 14:36:43;;;;;;;;;;;16.50;99.60;;;;;;4945085;29;19937;-86
2022/05/03 14:39:11;;;;;;;;;;;16.60;99.20;;;;;;4916254;29;19931;-85
2022/05/03 14:42:00;;;;;;;;;;;16.70;98.70;;;;;;4941581;29;19941;-84
2022/05/03 14:44:29;;;;;;;;;;;16.80;99.30;;;;;;4959674;29;19940;-85
2022/05/03 14:47:01;;;;;;;;;;;16.80;99.00;;;;;;4954364;29;19934;-84
2022/05/03 14:49:30;;;;;;;;;;;16.90;99.00;;;;;;4935073;29;19945;-84
2022/05/03 14:52:01;;;;;;;;;;;16.90;99.00;;;;;;5047229;23;20223;-86
2022/05/03 14:54:28;;;;;;;;;;;17.00;98.70;;;;;;4930074;28;19930;-83
2022/05/03 15:02:56;;;;;;;;;;;17.30;97.70;;;;;;4956309;28;19926;-84
2022/05/03 15:05:30;;;;;;;;;;;17.40;97.70;;;;;;4932565;28;20251;-84
2022/05/03 15:08:08;;;;;;;;;;;17.50;97.30;;;;;;4944818;28;19934;-85
2022/05/03 15:10:38;;;;;;;;;;;17.50;97.60;;;;;;4976053;28;19922;-85
2022/05/03 15:13:08;;;;;;;;;;;17.50;97.20;;;;;;4960531;28;19930;-85
2022/05/03 15:15:39;;;;;;;;;;;17.50;97.30;;;;;;4960007;28;19927;-85
2022/05/03 15:18:12;;;;;;;;;;;17.50;97.00;;;;;;4943990;29;19922;-85
2022/05/03 15:20:44;;;;;;;;;;;17.60;97.10;;;;;;4957924;29;19934;-84
2022/05/03 15:26:05;;;;;;;;;;;17.50;97.10;;;;;;4941215;29;20122;-85
2022/05/03 15:28:33;;;;;;;;;;;17.30;96.70;;;;;;4939724;29;20062;-84
2022/05/03 15:31:01;;;;;;;;;;;17.30;96.50;;;;;;4923207;29;19926;-84
2022/05/03 15:33:33;;;;;;;;;;;17.30;96.70;;;;;;4940851;29;19933;-84